Plumfield, Illinois
Current Conditions -  °F | °C
As of 9:53 AM on Thursday 30 Oct 2014 (Local Time) from KMWA Reporting Station
Clear Clear  
Wind Chill: 50°   Ceiling: Unl
Heat Index: 50°   Visibility: 20mi
Dew Point: 41°   Wind: 6mph
Humidity: 71%   Direction: 150°SSE
Pressure: 30.18"   Gusts: NA
Location:  37.9074°N, 88.9501°W
Report Text: KMWA 301453Z 15005KT 20SM SKC 10/05 A3018
Loading
Personal Weather Stations






























Interactive Weather Map
Tropical Storm Tracking
New forecast layout! Learn more

10-Day Weather Forecast

Advertisements
Track Severe Weather on mobile